Time;durP1;ratioP1;P1;durP2;ratioP2;P2;SDS_P1;SDS_P2;PMS_P1;PMS_P2;Temp;Humidity;BMP_temperature;BMP_pressure;BME280_temperature;BME280_humidity;BME280_pressure;Samples;Min_cycle;Max_cycle;Signal;HPM_P1;HPM_P2
2021/06/18 00:01:06;;;;;;;3.95;3.53;;;19.40;89.30;;;;;;5009677;28;20050;-78
2021/06/18 00:03:32;;;;;;;4.32;3.33;;;19.40;89.50;;;;;;5010824;28;20032;-78
2021/06/18 00:05:58;;;;;;;4.72;4.15;;;19.40;89.80;;;;;;5012595;28;20026;-78
2021/06/18 00:08:25;;;;;;;4.40;3.88;;;19.40;90.00;;;;;;5013481;28;20383;-78
2021/06/18 00:10:51;;;;;;;3.90;3.60;;;19.40;90.00;;;;;;5011550;28;20029;-78
2021/06/18 00:13:16;;;;;;;4.03;3.72;;;19.50;90.20;;;;;;5012880;28;20672;-78
2021/06/18 00:15:42;;;;;;;4.53;4.13;;;19.40;90.10;;;;;;5021077;28;20502;-77
2021/06/18 00:18:08;;;;;;;6.53;3.67;;;19.40;90.20;;;;;;5013192;28;20026;-77
2021/06/18 00:20:33;;;;;;;4.55;4.10;;;19.40;90.70;;;;;;5011308;28;20395;-78
2021/06/18 00:22:59;;;;;;;3.65;3.35;;;19.40;90.40;;;;;;5009998;28;20487;-78
2021/06/18 00:25:25;;;;;;;4.20;3.80;;;19.40;90.50;;;;;;5009926;28;20365;-78
2021/06/18 00:27:52;;;;;;;5.15;3.70;;;19.40;90.60;;;;;;5011602;28;20070;-77
2021/06/18 00:30:18;;;;;;;4.18;3.78;;;19.40;90.60;;;;;;4994023;28;20399;-78
2021/06/18 00:32:44;;;;;;;3.63;3.33;;;19.40;90.60;;;;;;5007191;28;20030;-78
2021/06/18 00:35:10;;;;;;;3.90;3.53;;;19.40;90.80;;;;;;5016935;28;20373;-77
2021/06/18 00:37:36;;;;;;;6.93;4.32;;;19.30;91.20;;;;;;5011331;28;20658;-78
2021/06/18 00:40:04;;;;;;;3.75;3.45;;;19.30;91.20;;;;;;5012692;28;20121;-77
2021/06/18 00:42:30;;;;;;;4.05;3.38;;;19.30;91.30;;;;;;5009123;28;20037;-78
2021/06/18 00:44:56;;;;;;;4.07;3.67;;;19.30;91.30;;;;;;5009634;28;20038;-77
2021/06/18 00:47:24;;;;;;;3.85;3.45;;;19.20;91.30;;;;;;5014495;28;20030;-78
2021/06/18 00:49:51;;;;;;;4.20;3.80;;;19.20;91.60;;;;;;5008356;28;20042;-77
2021/06/18 00:52:18;;;;;;;4.50;4.00;;;19.20;91.70;;;;;;5010803;28;20041;-77
2021/06/18 00:54:46;;;;;;;4.40;4.00;;;19.20;91.90;;;;;;5003338;28;20034;-78
2021/06/18 00:57:11;;;;;;;4.47;4.07;;;19.10;92.20;;;;;;5010137;28;20034;-77
2021/06/18 00:59:37;;;;;;;4.30;3.90;;;19.10;92.50;;;;;;5009251;28;20026;-78
2021/06/18 01:02:03;;;;;;;4.25;3.85;;;19.00;92.70;;;;;;5007810;28;20049;-78
2021/06/18 01:04:31;;;;;;;4.35;3.92;;;19.00;92.90;;;;;;5007956;28;20046;-78
2021/06/18 01:07:07;;;;;;;4.22;3.83;;;19.00;93.10;;;;;;4992574;28;20054;-78
2021/06/18 01:09:59;;;;;;;4.20;3.80;;;19.00;93.30;;;;;;5011199;28;20034;-77
2021/06/18 01:12:35;;;;;;;4.53;4.13;;;19.00;93.40;;;;;;5004158;28;20038;-78
2021/06/18 01:15:18;;;;;;;4.30;3.90;;;18.90;93.70;;;;;;5010320;28;20057;-78
2021/06/18 01:17:52;;;;;;;4.47;3.90;;;18.90;94.00;;;;;;5024035;28;20033;-78
2021/06/18 01:20:38;;;;;;;4.43;4.03;;;18.90;93.90;;;;;;5023809;28;20554;-78
2021/06/18 01:23:23;;;;;;;5.38;4.15;;;18.90;94.00;;;;;;5006114;28;20280;-78
2021/06/18 01:25:59;;;;;;;4.55;3.80;;;18.90;94.00;;;;;;5010830;28;20129;-77
2021/06/18 01:28:52;;;;;;;5.38;4.18;;;18.90;94.10;;;;;;5009876;28;20193;-78
2021/06/18 01:31:21;;;;;;;4.10;3.70;;;18.90;94.40;;;;;;5008533;28;20087;-78
2021/06/18 01:33:50;;;;;;;4.65;3.83;;;18.90;94.90;;;;;;5004989;28;20109;-77
2021/06/18 01:36:18;;;;;;;6.63;3.88;;;18.80;95.30;;;;;;5011431;28;20836;-78
2021/06/18 01:38:46;;;;;;;3.83;3.53;;;18.80;95.40;;;;;;5010395;28;20062;-78
2021/06/18 01:41:16;;;;;;;4.93;4.00;;;18.80;95.40;;;;;;5009405;28;20030;-78
2021/06/18 01:43:44;;;;;;;4.30;3.90;;;18.70;95.40;;;;;;5007854;28;20065;-77
2021/06/18 01:46:13;;;;;;;5.10;3.65;;;18.70;95.40;;;;;;5010478;28;20132;-78
2021/06/18 01:48:42;;;;;;;4.00;3.50;;;18.70;95.60;;;;;;5008165;28;20500;-77
2021/06/18 01:51:11;;;;;;;4.18;3.85;;;18.70;96.10;;;;;;5009093;28;20108;-78
2021/06/18 01:53:42;;;;;;;4.15;3.80;;;18.70;96.20;;;;;;5008247;28;20088;-78
2021/06/18 01:56:09;;;;;;;5.00;4.30;;;18.70;96.60;;;;;;5010106;28;20523;-78
2021/06/18 01:58:35;;;;;;;4.88;4.30;;;18.60;97.40;;;;;;5008138;28;20034;-78
2021/06/18 02:01:02;;;;;;;4.65;3.95;;;18.60;98.00;;;;;;5003232;28;20499;-77
2021/06/18 02:03:30;;;;;;;6.57;3.78;;;18.50;98.00;;;;;;5009878;28;20033;-78
2021/06/18 02:06:01;;;;;;;4.57;4.18;;;18.50;98.00;;;;;;5008132;28;20442;-78
2021/06/18 02:08:28;;;;;;;6.30;3.88;;;18.50;98.20;;;;;;5017508;28;20113;-77
2021/06/18 02:10:55;;;;;;;6.60;4.43;;;18.50;98.20;;;;;;5009068;28;20042;-78
2021/06/18 02:13:23;;;;;;;4.13;3.72;;;18.50;98.90;;;;;;5010292;28;20014;-78
2021/06/18 02:15:49;;;;;;;4.55;4.13;;;18.40;99.50;;;;;;5010867;28;20045;-78
2021/06/18 02:18:17;;;;;;;5.25;4.15;;;18.40;99.70;;;;;;5001888;28;20052;-78
2021/06/18 02:20:45;;;;;;;7.50;4.80;;;18.40;99.90;;;;;;5010256;28;20046;-78
2021/06/18 02:23:12;;;;;;;5.43;4.20;;;18.30;99.90;;;;;;5017290;28;20594;-78
2021/06/18 02:25:39;;;;;;;5.00;4.53;;;18.30;99.90;;;;;;4992723;28;20032;-77
2021/06/18 02:28:06;;;;;;;4.90;4.40;;;18.20;99.90;;;;;;4989811;28;20502;-78
2021/06/18 02:30:32;;;;;;;4.97;4.47;;;18.20;99.90;;;;;;5010404;28;20087;-78
2021/06/18 02:32:59;;;;;;;5.20;4.32;;;18.20;99.90;;;;;;5012022;28;20037;-78
2021/06/18 02:35:26;;;;;;;5.35;4.82;;;18.20;99.90;;;;;;5011386;28;20044;-78
2021/06/18 02:37:52;;;;;;;5.47;4.30;;;18.20;99.90;;;;;;5008729;28;20033;-78
2021/06/18 02:40:18;;;;;;;5.45;4.03;;;18.20;99.90;;;;;;5011401;28;20030;-77
2021/06/18 02:42:43;;;;;;;5.10;4.55;;;18.10;99.90;;;;;;5009863;28;20079;-78
2021/06/18 02:45:10;;;;;;;5.10;4.70;;;18.00;99.90;;;;;;5009940;28;20034;-78
2021/06/18 02:47:57;;;;;;;4.70;4.30;;;18.00;99.90;;;;;;5006005;28;20026;-78
2021/06/18 02:50:39;;;;;;;4.57;4.18;;;17.90;99.90;;;;;;5008372;28;20029;-78
2021/06/18 02:53:16;;;;;;;4.95;4.55;;;17.90;99.90;;;;;;5010797;28;20034;-78
2021/06/18 02:55:53;;;;;;;5.07;4.68;;;17.90;99.90;;;;;;5012232;28;20026;-78
2021/06/18 02:58:30;;;;;;;5.25;4.75;;;17.90;99.90;;;;;;5012601;28;20084;-78
2021/06/18 03:00:57;;;;;;;6.32;5.47;;;18.00;99.90;;;;;;5006044;28;20038;-78
2021/06/18 03:03:39;;;;;;;4.85;4.38;;;17.90;99.90;;;;;;5023309;28;20034;-78
2021/06/18 03:06:06;;;;;;;4.68;4.25;;;17.90;99.90;;;;;;5007448;28;20044;-78
2021/06/18 03:08:40;;;;;;;5.10;4.60;;;17.90;99.90;;;;;;5005781;28;20042;-78
2021/06/18 03:11:06;;;;;;;5.13;4.70;;;17.80;99.90;;;;;;5005273;28;20571;-78
2021/06/18 03:13:40;;;;;;;5.45;4.70;;;17.80;99.90;;;;;;5009148;28;20033;-78
2021/06/18 03:16:11;;;;;;;4.60;4.20;;;17.90;99.90;;;;;;5007511;28;20126;-78
2021/06/18 03:18:39;;;;;;;5.28;4.75;;;17.90;99.90;;;;;;4988757;28;20034;-78
2021/06/18 03:21:09;;;;;;;5.82;4.50;;;17.90;99.90;;;;;;5006958;28;20030;-78
2021/06/18 03:23:36;;;;;;;6.45;4.47;;;17.80;99.90;;;;;;5009100;28;20555;-78
2021/06/18 03:26:06;;;;;;;6.38;4.82;;;17.80;99.90;;;;;;5008789;28;20527;-78
2021/06/18 03:28:33;;;;;;;5.45;4.88;;;17.80;99.90;;;;;;5006961;28;20038;-78
2021/06/18 03:31:01;;;;;;;5.15;4.65;;;17.70;99.90;;;;;;5008071;28;20030;-78
2021/06/18 03:33:28;;;;;;;5.82;5.22;;;17.70;99.90;;;;;;5006019;28;20080;-78
2021/06/18 03:35:55;;;;;;;5.97;5.07;;;17.70;99.90;;;;;;5015743;28;20484;-78
2021/06/18 03:38:21;;;;;;;5.18;4.68;;;17.60;99.90;;;;;;5013047;28;20037;-78
2021/06/18 03:40:47;;;;;;;5.72;4.88;;;17.60;99.90;;;;;;5011700;28;20022;-78
2021/06/18 03:43:14;;;;;;;11.18;5.30;;;17.60;99.90;;;;;;5010925;28;20025;-78
2021/06/18 03:45:45;;;;;;;8.73;5.30;;;17.60;99.90;;;;;;5013538;28;20037;-78
2021/06/18 03:48:16;;;;;;;5.97;5.40;;;17.60;99.90;;;;;;5012834;28;20038;-78
2021/06/18 03:50:42;;;;;;;5.97;5.32;;;17.50;99.90;;;;;;5010936;28;20092;-77
2021/06/18 03:53:09;;;;;;;6.70;5.57;;;17.50;99.90;;;;;;5011900;28;20038;-77
2021/06/18 03:55:35;;;;;;;5.97;5.38;;;17.50;99.90;;;;;;5010266;28;20096;-77
2021/06/18 03:58:04;;;;;;;5.72;5.18;;;17.50;99.90;;;;;;5007818;28;20030;-78
2021/06/18 04:00:36;;;;;;;6.00;5.38;;;17.60;99.90;;;;;;5011361;28;20400;-78
2021/06/18 04:03:03;;;;;;;6.82;5.82;;;17.60;99.90;;;;;;5008880;28;20108;-78
2021/06/18 04:05:30;;;;;;;7.45;5.30;;;17.60;99.90;;;;;;5010491;28;20036;-78
2021/06/18 04:07:57;;;;;;;6.72;5.40;;;17.70;99.90;;;;;;5008102;28;20149;-77
2021/06/18 04:10:24;;;;;;;6.75;5.43;;;17.70;99.90;;;;;;5011067;28;20543;-78
2021/06/18 04:12:51;;;;;;;5.70;5.07;;;17.80;99.90;;;;;;5026464;28;20030;-78
2021/06/18 04:15:22;;;;;;;5.30;4.80;;;17.80;99.90;;;;;;5011214;28;20034;-78
2021/06/18 04:17:49;;;;;;;6.65;5.55;;;17.90;99.90;;;;;;5007751;28;20057;-78
2021/06/18 04:20:17;;;;;;;5.95;5.35;;;18.00;99.90;;;;;;5011687;28;20018;-77
2021/06/18 04:22:45;;;;;;;5.45;4.90;;;18.00;99.90;;;;;;5009053;28;20500;-78
2021/06/18 04:25:11;;;;;;;6.05;5.35;;;17.90;99.90;;;;;;5012019;28;20029;-78
2021/06/18 04:27:38;;;;;;;7.50;5.70;;;18.00;99.90;;;;;;5010519;28;20038;-77
2021/06/18 04:30:11;;;;;;;6.63;5.95;;;18.00;99.90;;;;;;5012533;28;20027;-78
2021/06/18 04:32:37;;;;;;;6.32;5.65;;;18.10;99.90;;;;;;5009781;28;20030;-77
2021/06/18 04:35:05;;;;;;;6.15;5.55;;;18.10;99.90;;;;;;5011913;28;20030;-78
2021/06/18 04:37:33;;;;;;;5.80;5.07;;;18.10;99.90;;;;;;5009675;28;20029;-78
2021/06/18 04:39:59;;;;;;;6.65;5.90;;;18.20;99.90;;;;;;5008331;28;20018;-78
2021/06/18 04:42:25;;;;;;;5.57;4.97;;;18.30;99.90;;;;;;5009876;28;20034;-78
2021/06/18 04:44:51;;;;;;;5.70;5.20;;;18.40;99.90;;;;;;5011769;28;20042;-78
2021/06/18 04:47:19;;;;;;;5.07;4.47;;;18.50;99.90;;;;;;4991150;28;20033;-78
2021/06/18 04:49:46;;;;;;;4.93;4.50;;;18.60;99.90;;;;;;5011781;28;20030;-78
2021/06/18 04:52:12;;;;;;;5.40;4.72;;;18.70;99.90;;;;;;5008418;28;20033;-78
2021/06/18 04:54:37;;;;;;;6.05;5.43;;;18.70;99.90;;;;;;4992605;28;20122;-78
2021/06/18 04:57:03;;;;;;;6.13;5.43;;;18.80;99.90;;;;;;5011972;28;20030;-78
2021/06/18 04:59:29;;;;;;;5.43;4.93;;;18.90;99.90;;;;;;5008121;28;20053;-78
2021/06/18 05:01:55;;;;;;;6.82;4.88;;;19.00;99.90;;;;;;5023333;28;20037;-78
2021/06/18 05:04:21;;;;;;;5.53;4.90;;;19.10;99.90;;;;;;5011311;28;20036;-78
2021/06/18 05:06:47;;;;;;;8.30;6.03;;;19.20;99.90;;;;;;5010999;28;20030;-78
2021/06/18 05:09:13;;;;;;;6.15;5.55;;;19.20;99.90;;;;;;5007041;28;20085;-78
2021/06/18 05:11:39;;;;;;;7.70;5.50;;;19.30;99.90;;;;;;5010228;28;20284;-78
2021/06/18 05:14:04;;;;;;;5.57;4.95;;;19.40;99.90;;;;;;5011899;28;20097;-78
2021/06/18 05:16:30;;;;;;;9.52;6.15;;;19.50;99.90;;;;;;5008863;28;20018;-78
2021/06/18 05:18:56;;;;;;;6.72;6.13;;;19.60;99.90;;;;;;5009035;28;20018;-78
2021/06/18 05:21:21;;;;;;;8.00;6.93;;;19.70;99.90;;;;;;5010487;28;20030;-77
2021/06/18 05:23:47;;;;;;;8.10;6.78;;;19.80;99.90;;;;;;5011810;28;20034;-78
2021/06/18 05:26:13;;;;;;;8.48;7.28;;;20.00;99.90;;;;;;5009297;28;20034;-78
2021/06/18 05:28:39;;;;;;;9.65;7.43;;;20.00;99.90;;;;;;5007077;28;20439;-78
2021/06/18 05:31:04;;;;;;;8.05;7.00;;;20.30;99.90;;;;;;5010632;28;20030;-78
2021/06/18 05:33:30;;;;;;;5.97;5.47;;;20.60;99.90;;;;;;5012862;28;20036;-78
2021/06/18 05:35:56;;;;;;;6.18;5.45;;;21.10;99.90;;;;;;5010159;28;20041;-78
2021/06/18 05:38:22;;;;;;;7.53;6.65;;;21.90;99.90;;;;;;4996409;28;20026;-78
2021/06/18 05:40:48;;;;;;;6.82;5.75;;;22.50;99.90;;;;;;5011773;28;20539;-78
2021/06/18 05:43:14;;;;;;;6.75;5.55;;;23.10;99.90;;;;;;5012962;28;20026;-78
2021/06/18 05:45:40;;;;;;;8.70;5.28;;;23.80;99.90;;;;;;5015237;28;20026;-78
2021/06/18 05:48:07;;;;;;;6.13;4.90;;;24.40;99.90;;;;;;5011528;28;20053;-78
2021/06/18 05:50:33;;;;;;;5.25;4.75;;;25.00;99.40;;;;;;5013909;28;20068;-78
2021/06/18 05:53:00;;;;;;;5.35;4.85;;;25.40;97.30;;;;;;5013207;28;20037;-77
2021/06/18 05:55:25;;;;;;;5.53;4.95;;;25.90;96.70;;;;;;5020258;28;20029;-78
2021/06/18 05:57:54;;;;;;;5.40;4.90;;;26.20;94.10;;;;;;5011006;28;20081;-78
2021/06/18 06:00:21;;;;;;;5.50;5.00;;;26.40;92.70;;;;;;5008609;28;20033;-78
2021/06/18 06:02:46;;;;;;;4.68;4.28;;;26.20;92.10;;;;;;5014672;28;20527;-78
2021/06/18 06:05:12;;;;;;;5.07;4.68;;;26.00;88.80;;;;;;5015945;28;20026;-78
2021/06/18 06:07:44;;;;;;;4.65;4.03;;;26.30;89.40;;;;;;5014014;28;20030;-78
2021/06/18 06:10:10;;;;;;;5.07;4.60;;;26.50;87.70;;;;;;5010608;28;20038;-78
2021/06/18 06:12:36;;;;;;;5.28;4.65;;;27.10;87.90;;;;;;5012530;28;20021;-78
2021/06/18 06:15:02;;;;;;;4.78;4.18;;;27.70;83.40;;;;;;5011729;28;21083;-78
2021/06/18 06:17:28;;;;;;;4.82;3.92;;;27.90;77.70;;;;;;5009634;28;20496;-78
2021/06/18 06:19:54;;;;;;;4.90;3.85;;;28.00;76.80;;;;;;5013761;28;20030;-78
2021/06/18 06:22:19;;;;;;;4.88;3.85;;;27.80;75.10;;;;;;5012733;28;20484;-78
2021/06/18 06:24:45;;;;;;;4.43;3.55;;;27.70;76.30;;;;;;5011318;28;20545;-78
2021/06/18 06:27:11;;;;;;;3.80;3.50;;;27.80;74.00;;;;;;5010685;28;20136;-78
2021/06/18 06:29:37;;;;;;;6.20;4.25;;;28.00;75.00;;;;;;4992553;28;20311;-78
2021/06/18 06:32:03;;;;;;;5.10;3.65;;;27.40;73.50;;;;;;5014847;28;20041;-78
2021/06/18 06:34:29;;;;;;;7.25;4.60;;;27.70;76.00;;;;;;5007939;28;20038;-79
2021/06/18 06:36:54;;;;;;;3.65;3.35;;;27.80;73.20;;;;;;5006840;28;20029;-78
2021/06/18 06:39:20;;;;;;;4.35;3.95;;;27.60;71.80;;;;;;5012785;28;20030;-77
2021/06/18 06:41:46;;;;;;;4.00;3.70;;;27.90;74.30;;;;;;5012564;28;20037;-80
2021/06/18 06:44:12;;;;;;;3.40;3.20;;;27.90;70.80;;;;;;5013482;28;20499;-78
2021/06/18 06:46:37;;;;;;;4.97;3.55;;;28.10;71.40;;;;;;5014070;28;20018;-79
2021/06/18 06:49:03;;;;;;;4.43;3.10;;;28.40;67.90;;;;;;5016948;28;20045;-78
2021/06/18 06:51:29;;;;;;;3.85;3.42;;;28.80;67.40;;;;;;5019571;28;20117;-77
2021/06/18 06:53:55;;;;;;;4.80;3.15;;;29.00;64.30;;;;;;5013477;28;20080;-79
2021/06/18 06:56:21;;;;;;;3.50;3.20;;;29.20;63.90;;;;;;5013882;28;20033;-79
2021/06/18 06:58:47;;;;;;;4.15;3.75;;;29.60;62.50;;;;;;5014591;28;20038;-78
2021/06/18 07:01:14;;;;;;;3.90;3.60;;;29.50;60.60;;;;;;5016854;28;20544;-79
2021/06/18 07:03:40;;;;;;;4.75;4.00;;;29.30;64.80;;;;;;5015801;28;20076;-78
2021/06/18 07:06:07;;;;;;;4.07;3.38;;;29.90;64.20;;;;;;5013566;28;20056;-78
2021/06/18 07:08:35;;;;;;;3.92;2.92;;;30.30;60.00;;;;;;5011453;28;20030;-80
2021/06/18 07:11:01;;;;;;;3.70;3.35;;;30.80;59.30;;;;;;5012303;28;20377;-79
2021/06/18 07:13:27;;;;;;;4.13;3.67;;;31.10;58.80;;;;;;5017009;28;20132;-79
2021/06/18 07:15:53;;;;;;;3.58;3.25;;;30.90;58.00;;;;;;5016641;28;20106;-79
2021/06/18 07:18:19;;;;;;;3.50;3.20;;;30.80;60.50;;;;;;4994581;28;20030;-78
2021/06/18 07:20:45;;;;;;;3.72;3.42;;;30.70;58.80;;;;;;5018389;28;20045;-79
2021/06/18 07:23:11;;;;;;;3.65;3.35;;;31.10;59.90;;;;;;5030423;28;20042;-79
2021/06/18 07:25:37;;;;;;;4.40;4.00;;;31.40;58.50;;;;;;5017836;28;20041;-79
2021/06/18 07:28:04;;;;;;;4.28;3.33;;;31.80;56.80;;;;;;5014810;28;20049;-79
2021/06/18 07:30:30;;;;;;;4.32;2.78;;;32.10;56.40;;;;;;5016451;28;20052;-79
2021/06/18 07:32:56;;;;;;;4.50;3.15;;;32.10;54.80;;;;;;5021403;28;20086;-78
2021/06/18 07:35:22;;;;;;;3.83;3.53;;;32.10;55.90;;;;;;5021744;28;20500;-81
2021/06/18 07:37:47;;;;;;;4.20;3.08;;;32.10;53.90;;;;;;4994761;28;20037;-79
2021/06/18 07:40:16;;;;;;;4.25;3.47;;;32.20;56.20;;;;;;4998807;28;20049;-79
2021/06/18 07:42:43;;;;;;;3.78;3.47;;;32.00;56.00;;;;;;5016814;28;20034;-79
2021/06/18 07:45:09;;;;;;;3.60;3.30;;;31.70;54.50;;;;;;5016480;28;20029;-79
2021/06/18 07:47:35;;;;;;;3.17;2.88;;;31.80;56.70;;;;;;5007783;28;20143;-79
2021/06/18 07:50:01;;;;;;;3.55;3.08;;;32.40;55.30;;;;;;5015018;28;20484;-79
2021/06/18 07:52:27;;;;;;;3.60;3.30;;;32.90;54.60;;;;;;5016001;28;20038;-79
2021/06/18 07:54:56;;;;;;;4.65;3.38;;;33.00;51.30;;;;;;5017856;28;20033;-79
2021/06/18 07:57:21;;;;;;;3.47;3.17;;;33.00;51.90;;;;;;5009592;28;20191;-79
2021/06/18 07:59:47;;;;;;;3.40;3.10;;;32.80;53.10;;;;;;5024151;28;20038;-79
2021/06/18 08:02:13;;;;;;;5.47;3.80;;;32.70;52.40;;;;;;4995325;28;20045;-79
2021/06/18 08:04:38;;;;;;;7.93;3.10;;;32.70;53.50;;;;;;5017476;28;20045;-79
2021/06/18 08:07:04;;;;;;;3.88;3.58;;;32.60;52.70;;;;;;5010554;28;20086;-79
2021/06/18 08:09:30;;;;;;;3.65;3.13;;;32.20;51.30;;;;;;4996404;28;20076;-79
2021/06/18 08:11:55;;;;;;;3.30;3.10;;;32.00;52.10;;;;;;5015645;28;20033;-79
2021/06/18 08:14:21;;;;;;;4.82;3.80;;;31.60;54.00;;;;;;5020842;28;20030;-78
2021/06/18 08:16:47;;;;;;;4.45;3.53;;;31.40;53.10;;;;;;5021951;28;20042;-79
2021/06/18 08:19:12;;;;;;;4.00;3.70;;;31.30;53.90;;;;;;5000998;28;20108;-78
2021/06/18 08:21:38;;;;;;;4.18;3.08;;;31.10;54.10;;;;;;5018862;28;20075;-79
2021/06/18 08:24:04;;;;;;;3.50;3.20;;;30.80;56.10;;;;;;5012676;28;20025;-78
2021/06/18 08:26:30;;;;;;;3.45;3.10;;;30.20;53.60;;;;;;5008530;28;20117;-78
2021/06/18 08:28:56;;;;;;;4.05;3.25;;;30.20;56.80;;;;;;5008234;28;20107;-79
2021/06/18 08:31:25;;;;;;;4.18;3.78;;;30.10;56.30;;;;;;5021479;28;20096;-79
2021/06/18 08:33:51;;;;;;;6.35;3.60;;;30.10;54.90;;;;;;5008801;28;20396;-79
2021/06/18 08:36:17;;;;;;;4.25;3.38;;;30.10;55.40;;;;;;5011738;28;20639;-79
2021/06/18 08:38:43;;;;;;;5.20;3.40;;;30.40;55.10;;;;;;4988827;28;20734;-79
2021/06/18 08:41:09;;;;;;;4.88;3.33;;;30.70;57.30;;;;;;5006633;28;20272;-79
2021/06/18 08:43:36;;;;;;;3.92;3.10;;;30.80;54.20;;;;;;5026091;28;20038;-79
2021/06/18 08:46:03;;;;;;;4.45;3.67;;;31.00;53.90;;;;;;5009732;28;20054;-79
2021/06/18 08:48:30;;;;;;;4.28;3.00;;;31.20;54.50;;;;;;4989515;28;20037;-79
2021/06/18 08:50:58;;;;;;;5.28;3.45;;;31.70;54.10;;;;;;4994453;28;20096;-79
2021/06/18 08:53:25;;;;;;;4.25;3.85;;;31.90;52.90;;;;;;5007285;28;20293;-79
2021/06/18 08:55:51;;;;;;;3.35;3.10;;;32.00;50.60;;;;;;4993580;28;20404;-78
2021/06/18 08:58:17;;;;;;;3.70;3.40;;;32.10;53.00;;;;;;5012524;28;20092;-79
2021/06/18 09:00:44;;;;;;;3.75;3.15;;;32.20;51.50;;;;;;5012104;28;20337;-79
2021/06/18 09:03:34;;;;;;;3.90;3.50;;;32.10;51.60;;;;;;5014243;28;20676;-78
2021/06/18 09:06:00;;;;;;;3.72;3.42;;;31.90;51.00;;;;;;5029432;28;20029;-79
2021/06/18 09:08:26;;;;;;;5.47;3.70;;;31.60;53.80;;;;;;5007582;28;20026;-79
2021/06/18 09:10:52;;;;;;;4.60;3.55;;;31.40;53.70;;;;;;5006023;28;20168;-79
2021/06/18 09:13:31;;;;;;;4.03;3.55;;;30.90;52.60;;;;;;5008186;28;20523;-79
2021/06/18 09:15:59;;;;;;;3.72;3.42;;;30.70;53.50;;;;;;5009673;28;20042;-79
2021/06/18 09:18:35;;;;;;;3.85;3.20;;;30.70;56.30;;;;;;5011499;28;20040;-79
2021/06/18 09:21:09;;;;;;;5.45;3.78;;;30.70;54.70;;;;;;4989294;28;20644;-79
2021/06/18 09:23:44;;;;;;;3.92;3.50;;;30.60;57.40;;;;;;5010830;28;20022;-79
2021/06/18 09:26:34;;;;;;;4.43;3.65;;;30.40;54.40;;;;;;4996953;28;20034;-80
2021/06/18 09:29:13;;;;;;;3.78;3.35;;;30.30;53.20;;;;;;5014969;28;20127;-79
2021/06/18 09:31:39;;;;;;;3.53;3.20;;;30.20;55.00;;;;;;5012719;28;20040;-79
2021/06/18 09:34:07;;;;;;;3.88;3.20;;;30.40;55.20;;;;;;5009972;28;20026;-78
2021/06/18 09:36:33;;;;;;;3.50;3.30;;;30.50;52.70;;;;;;5009633;28;20045;-79
2021/06/18 09:39:00;;;;;;;3.60;3.30;;;30.40;53.80;;;;;;5012656;28;20061;-78
2021/06/18 09:41:42;;;;;;;3.70;3.30;;;30.40;55.90;;;;;;5016813;28;20034;-80
2021/06/18 09:44:28;;;;;;;3.28;2.95;;;30.40;53.10;;;;;;5010161;28;20093;-79
2021/06/18 09:46:56;;;;;;;5.70;3.33;;;30.40;53.80;;;;;;4982190;28;20041;-78
2021/06/18 09:49:31;;;;;;;3.92;3.53;;;30.50;56.40;;;;;;5015307;28;20045;-78
2021/06/18 09:52:01;;;;;;;4.35;3.10;;;30.50;54.40;;;;;;5033072;28;20086;-79
2021/06/18 09:54:33;;;;;;;3.70;3.40;;;30.40;53.00;;;;;;5011612;28;20033;-78
2021/06/18 09:57:05;;;;;;;3.92;3.50;;;30.40;52.80;;;;;;5006229;28;20042;-80
2021/06/18 09:59:43;;;;;;;3.35;3.05;;;30.00;51.00;;;;;;5005942;28;20430;-79
2021/06/18 10:02:08;;;;;;;3.28;3.05;;;29.90;51.50;;;;;;5004145;28;20102;-80
2021/06/18 10:04:36;;;;;;;3.65;3.35;;;29.80;52.50;;;;;;5000007;28;20037;-78
2021/06/18 10:07:02;;;;;;;4.13;3.42;;;29.90;52.70;;;;;;5011205;28;20097;-79
2021/06/18 10:09:28;;;;;;;3.78;3.47;;;29.90;55.10;;;;;;5005988;28;20096;-79
2021/06/18 10:11:54;;;;;;;4.90;3.42;;;29.80;55.30;;;;;;5018063;28;20041;-78
2021/06/18 10:14:20;;;;;;;3.75;2.95;;;29.90;54.00;;;;;;5012887;28;20030;-79
2021/06/18 10:16:46;;;;;;;9.95;3.70;;;29.80;54.20;;;;;;4980398;28;20034;-79
2021/06/18 10:19:12;;;;;;;3.20;2.90;;;29.80;54.40;;;;;;5014490;28;20032;-80
2021/06/18 10:21:56;;;;;;;3.90;3.50;;;29.90;53.50;;;;;;5000209;28;20022;-80
2021/06/18 10:24:26;;;;;;;3.53;3.22;;;29.90;52.50;;;;;;5011897;28;20064;-79
2021/06/18 10:26:53;;;;;;;4.32;3.20;;;29.80;53.70;;;;;;4993840;28;20037;-80
2021/06/18 10:29:51;;;;;;;4.35;2.90;;;29.90;52.60;;;;;;5017397;28;20583;-78
2021/06/18 10:32:33;;;;;;;6.97;3.47;;;29.80;53.10;;;;;;4991473;28;20049;-79
2021/06/18 10:35:01;;;;;;;3.65;3.15;;;29.90;54.30;;;;;;5015827;28;20026;-79
2021/06/18 10:37:29;;;;;;;4.25;3.50;;;29.80;53.50;;;;;;5014792;28;20032;-80
2021/06/18 10:39:57;;;;;;;4.45;3.45;;;29.80;55.30;;;;;;5015040;28;20045;-79
2021/06/18 10:42:23;;;;;;;3.05;2.85;;;29.90;54.90;;;;;;5011074;28;20037;-80
2021/06/18 10:44:51;;;;;;;3.97;3.53;;;29.90;53.50;;;;;;5010190;28;20022;-78
2021/06/18 10:47:33;;;;;;;3.40;3.10;;;29.90;52.30;;;;;;5002730;28;20042;-79
2021/06/18 10:50:00;;;;;;;3.50;3.20;;;29.90;52.00;;;;;;5012576;28;20034;-79
2021/06/18 10:52:34;;;;;;;13.80;3.33;;;29.80;53.20;;;;;;5001292;28;20049;-79
2021/06/18 10:55:00;;;;;;;3.35;2.97;;;29.90;53.80;;;;;;5004258;28;20076;-80
2021/06/18 10:57:27;;;;;;;4.57;3.30;;;30.00;55.80;;;;;;4999094;28;20033;-79
2021/06/18 10:59:54;;;;;;;2.92;2.72;;;30.10;55.70;;;;;;5000706;28;20065;-79
2021/06/18 11:02:33;;;;;;;3.20;2.97;;;30.10;54.60;;;;;;5003227;28;20045;-80
2021/06/18 11:05:01;;;;;;;4.18;3.10;;;30.30;52.10;;;;;;5019011;28;20026;-79
2021/06/18 11:07:35;;;;;;;3.40;2.88;;;30.30;50.80;;;;;;5000856;28;21112;-79
2021/06/18 11:10:06;;;;;;;3.33;3.03;;;30.30;53.10;;;;;;5002817;28;20060;-80
2021/06/18 11:12:41;;;;;;;4.40;2.53;;;30.00;48.00;;;;;;5003008;28;20045;-79
2021/06/18 11:15:28;;;;;;;4.53;2.97;;;30.00;49.60;;;;;;4998517;28;20026;-78
2021/06/18 11:18:19;;;;;;;2.60;2.40;;;30.00;51.70;;;;;;4997923;28;20037;-79
2021/06/18 11:20:46;;;;;;;3.25;2.58;;;30.10;52.10;;;;;;5018715;28;20056;-80
2021/06/18 11:23:18;;;;;;;2.67;2.40;;;30.20;47.90;;;;;;5005082;28;20033;-79
2021/06/18 11:25:51;;;;;;;3.33;2.42;;;30.20;48.50;;;;;;5004536;28;20062;-79
2021/06/18 11:28:32;;;;;;;2.42;2.30;;;30.20;46.80;;;;;;5003508;28;20057;-78
2021/06/18 11:31:13;;;;;;;3.13;1.95;;;30.30;49.10;;;;;;5005428;28;20095;-78
2021/06/18 11:33:44;;;;;;;4.60;2.10;;;30.50;53.70;;;;;;5000945;28;20045;-79
2021/06/18 11:36:20;;;;;;;2.55;2.35;;;30.70;44.50;;;;;;4997282;28;20038;-80
2021/06/18 11:38:50;;;;;;;2.85;2.65;;;30.90;46.70;;;;;;4996555;28;20037;-79
2021/06/18 11:41:24;;;;;;;2.60;2.30;;;31.00;51.10;;;;;;5002420;28;20173;-79
2021/06/18 11:43:52;;;;;;;3.22;2.60;;;31.20;45.70;;;;;;5016028;28;20053;-79
2021/06/18 11:46:19;;;;;;;3.00;2.80;;;31.30;48.40;;;;;;5002301;28;20033;-78
2021/06/18 11:48:46;;;;;;;5.57;3.03;;;31.50;51.20;;;;;;5000050;28;20041;-78
2021/06/18 11:51:22;;;;;;;7.18;3.47;;;31.30;48.20;;;;;;5005488;28;20431;-79
2021/06/18 11:53:49;;;;;;;5.70;2.88;;;31.20;47.10;;;;;;5002936;28;20033;-80
2021/06/18 11:56:15;;;;;;;2.92;2.50;;;31.30;48.30;;;;;;5006634;28;20041;-79
2021/06/18 11:58:42;;;;;;;3.58;2.78;;;31.20;47.40;;;;;;5010592;28;20108;-79
2021/06/18 12:01:11;;;;;;;3.38;3.17;;;31.30;51.10;;;;;;5007578;28;20034;-79
2021/06/18 12:03:37;;;;;;;4.03;3.05;;;31.40;49.60;;;;;;4997751;28;20092;-79
2021/06/18 12:06:31;;;;;;;3.47;3.17;;;31.70;50.90;;;;;;5007425;28;20034;-79
2021/06/18 12:09:07;;;;;;;4.28;3.58;;;32.00;48.60;;;;;;5008118;28;20026;-79
2021/06/18 12:11:35;;;;;;;7.20;3.55;;;32.40;48.00;;;;;;5004272;28;20451;-79
2021/06/18 12:14:02;;;;;;;4.65;3.22;;;32.40;49.20;;;;;;5000049;28;20048;-79
2021/06/18 12:16:29;;;;;;;4.50;3.22;;;32.60;48.90;;;;;;5002131;28;20037;-79
2021/06/18 12:18:56;;;;;;;3.47;2.97;;;32.90;51.30;;;;;;5001719;28;20026;-79
2021/06/18 12:21:26;;;;;;;2.80;2.60;;;33.20;48.90;;;;;;5002807;28;20029;-79
2021/06/18 12:24:02;;;;;;;4.60;2.90;;;33.50;49.60;;;;;;5004702;28;20036;-78
2021/06/18 12:26:28;;;;;;;3.08;2.88;;;33.80;44.90;;;;;;5005860;28;20610;-79
2021/06/18 12:28:55;;;;;;;3.50;3.20;;;34.20;44.40;;;;;;5004351;28;20187;-79
2021/06/18 12:31:20;;;;;;;3.28;3.08;;;34.30;42.90;;;;;;5004579;28;20045;-79
2021/06/18 12:33:47;;;;;;;3.30;2.78;;;34.40;43.40;;;;;;5002121;28;20030;-79
2021/06/18 12:36:20;;;;;;;3.35;3.08;;;34.30;46.30;;;;;;5001561;28;20042;-80
2021/06/18 12:38:47;;;;;;;3.20;2.80;;;34.50;44.70;;;;;;5001369;28;20038;-79
2021/06/18 12:41:30;;;;;;;3.17;2.97;;;34.70;47.70;;;;;;5004398;28;20026;-80
2021/06/18 12:44:03;;;;;;;3.13;2.88;;;34.80;42.20;;;;;;5006114;28;20017;-79
2021/06/18 12:46:31;;;;;;;2.70;2.50;;;35.10;44.30;;;;;;5004181;28;20518;-79
2021/06/18 12:49:11;;;;;;;3.03;2.83;;;35.60;43.60;;;;;;5002780;28;20080;-80
2021/06/18 12:51:38;;;;;;;3.10;2.90;;;36.30;44.70;;;;;;5005805;28;20037;-80
2021/06/18 12:54:06;;;;;;;2.80;2.60;;;36.50;40.30;;;;;;5017371;28;20041;-80
2021/06/18 12:56:44;;;;;;;3.05;2.75;;;36.30;41.20;;;;;;5016799;28;20049;-79